Portada
METAR-TAF:

METAR-TAF

Aeroports :

Oruro, Bolívia

latitud: 17-58S, longitud: 067-04W, altitud: 3072 m

Observació

L'informe es va fer fa 1 hora i 2 minuts, a les 11:00 UTC
Vent 5 kt del Est/Nord-Est
Temperatura 8°C
Humitat 87%
Pressió 1036 hPa
Visibilitat 10 km o més
Núvols disperses a una alçada de 1500 ft
Cel cobert a una alçada de 7000 ft

METAR: SLOR 061100Z 07005KT 9999 SCT015 OVC070 08/06 Q1036

Hora: 08:02 (12:02 UTC)


TAF: manca

Observacions i pronòstics meteorològics de més de 4000 aeroports (METAR i TAF).

Les estacions disponibles són els punts grocs i vermells al mapa.

Posi el ratolí al punt desitjat per veure el nom de l'estació.

Feu clic per veure les observacions i els pronòstics meteorològics.

Per canviar el mapa: feu clic els botons verds amb una creu de color negre per apropar; al botó verd amb un guió per allunyar la imatge; o en les fletxes verdes per a mapes adjacents.


METAR-TAF: